KCBF/CBF METAR and TAF weather

Enter ICAO airport designator
Station Type Date Time Source
KCBF METAR 2019/04/25 22:35 UTC NOAA

KCBF 252235Z AUTO 35014KT 10SM FEW070 SCT095 20/02 A2993 RMK AO2


Station Type Date Time Source
KCBF Decoded METAR 2019/04/25 22:35 UTC NOAA

Council Bluffs, IA, United States (KCBF) 41-16N 095-46W
Apr 25, 2019 - 06:35 PM EDT / 2019.04.25 2235 UTC
Wind: from the N (350 degrees) at 16 MPH (14 KT):0
Visibility: 10 mile(s):0
Sky conditions: partly cloudy
Temperature: 68 F (20 C)
Dew Point: 35 F (2 C)
Relative Humidity: 30%
Pressure (altimeter): 29.93 in. Hg (1013 hPa)
ob: KCBF 252235Z AUTO 35014KT 10SM FEW070 SCT095 20/02 A2993 RMK AO2
cycle: 22

Station Type Date Time Source
KCBF TAF UTC NOAA

Error!

Example: see airport list